Archiv-/Tagesdaten

--Timestamp---	Temp	Chill	HIndex	Humid	Dewpt	 Wind 	HiWind	WindDir	Rain 	Barom	Solar	 ET  	 UV 
--------------	----	-----	------	-----	-----	------	------	-------	-----	-----	-----	-----	----
20090620 00:00	11.9	11.9	11.9	93	10.8	6	10	248	0.0	1020.1	0	0.000	0.0
20090620 00:05	11.9	11.9	11.9	93	10.8	5	10	270	0.0	1020.2	0	0.000	0.0
20090620 00:10	11.9	11.9	11.9	93	10.8	5	10	270	0.0	1020.2	0	0.000	0.0
20090620 00:15	11.9	11.9	11.9	93	10.8	5	10	270	0.0	1020.2	0	0.000	0.0
20090620 00:20	11.9	11.9	11.9	93	10.8	5	8	270	0.0	1020.2	0	0.000	0.0
20090620 00:25	11.9	11.9	11.9	93	10.8	3	8	270	0.0	1020.3	0	0.000	0.0
20090620 00:30	11.9	11.9	11.9	93	10.8	3	8	270	0.2	1020.3	0	0.000	0.0
20090620 00:35	11.9	11.9	11.9	93	10.8	6	10	248	0.0	1020.3	0	0.000	0.0
20090620 00:40	11.9	11.9	11.9	93	10.8	6	11	270	0.0	1020.3	0	0.000	0.0
20090620 00:45	11.9	11.9	11.9	93	10.8	5	10	270	0.0	1020.3	0	0.000	0.0
20090620 00:50	11.9	11.9	11.9	93	10.8	3	6	292	0.0	1020.1	0	0.000	0.0
20090620 00:55	11.9	11.9	11.9	93	10.8	3	8	270	0.0	1020.1	0	0.000	0.0
20090620 01:00	11.8	11.8	11.8	93	10.7	3	8	270	0.0	1020.0	0	0.000	0.0
20090620 01:05	11.8	11.8	11.8	93	10.7	2	6	270	0.0	1020.1	0	0.000	0.0
20090620 01:10	11.7	11.7	11.7	93	10.6	5	8	270	0.0	1020.0	0	0.000	0.0
20090620 01:15	11.7	11.7	11.7	93	10.6	2	5	270	0.0	1020.0	0	0.000	0.0
20090620 01:20	11.7	11.7	11.7	93	10.6	2	5	270	0.0	1020.0	0	0.000	0.0
20090620 01:25	11.7	11.7	11.7	93	10.6	0	5	270	0.0	1019.8	0	0.000	0.0
20090620 01:30	11.7	11.7	11.7	93	10.6	2	5	270	0.0	1019.9	0	0.000	0.0
20090620 01:35	11.7	11.7	11.7	93	10.6	3	6	270	0.0	1019.8	0	0.000	0.0
20090620 01:40	11.6	11.6	11.6	93	10.5	2	5	270	0.0	1019.8	0	0.000	0.0
20090620 01:45	11.6	11.6	11.6	93	10.5	3	6	292	0.0	1019.8	0	0.000	0.0
20090620 01:50	11.6	11.6	11.6	93	10.5	5	8	270	0.0	1019.8	0	0.000	0.0
20090620 01:55	11.6	11.6	11.6	93	10.5	5	10	292	0.0	1019.8	0	0.000	0.0
20090620 02:00	11.6	11.6	11.6	93	10.5	5	10	270	0.0	1019.8	0	0.000	0.0
20090620 02:05	11.6	11.6	11.6	93	10.5	5	10	270	0.0	1020.0	0	0.000	0.0
20090620 02:10	11.6	11.6	11.6	93	10.5	3	8	270	0.0	1019.9	0	0.000	0.0
20090620 02:15	11.5	11.5	11.5	93	10.4	3	8	270	0.0	1019.7	0	0.000	0.0
20090620 02:20	11.5	11.5	11.5	93	10.4	2	8	270	0.0	1019.7	0	0.000	0.0
20090620 02:25	11.6	11.6	11.6	93	10.5	0	3	270	0.0	1019.8	0	0.000	0.0
20090620 02:30	11.5	11.5	11.5	93	10.4	0	3	270	0.0	1019.7	0	0.000	0.0
20090620 02:35	11.5	11.5	11.5	93	10.4	3	10	270	0.0	1019.8	0	0.000	0.0
20090620 02:40	11.5	11.5	11.5	93	10.4	5	10	270	0.0	1019.8	0	0.000	0.0
20090620 02:45	11.4	11.4	11.4	93	10.4	3	10	270	0.0	1019.8	0	0.000	0.0
20090620 02:50	11.4	11.4	11.4	93	10.3	3	6	270	0.0	1019.9	0	0.000	0.0
20090620 02:55	11.3	11.3	11.3	93	10.2	3	6	270	0.0	1019.9	0	0.000	0.0
20090620 03:00	11.3	11.3	11.3	93	10.2	3	8	270	0.0	1019.8	0	0.000	0.0
20090620 03:05	11.3	11.3	11.3	92	10.0	2	6	270	0.0	1019.7	0	0.000	0.0
20090620 03:10	11.2	11.2	11.2	92	10.0	3	6	270	0.2	1019.7	0	0.000	0.0
20090620 03:15	11.2	11.2	11.2	92	10.0	2	5	270	0.0	1019.7	0	0.000	0.0
20090620 03:20	11.2	11.2	11.2	92	10.0	2	5	270	0.0	1019.7	0	0.000	0.0
20090620 03:25	11.1	11.1	11.1	92	9.9	2	5	270	0.2	1019.6	0	0.000	0.0
20090620 03:30	11.1	11.1	11.1	92	9.9	0	5	270	0.0	1019.7	0	0.000	0.0
20090620 03:35	11.1	11.1	11.1	92	9.8	3	8	270	0.0	1019.7	0	0.000	0.0
20090620 03:40	11.1	11.1	11.1	92	9.8	2	6	270	0.2	1019.7	0	0.000	0.0
20090620 03:45	11.1	11.1	11.1	92	9.8	3	6	270	0.0	1019.5	0	0.000	0.0
20090620 03:50	11.1	11.1	11.1	92	9.8	3	6	270	0.0	1019.5	0	0.000	0.0
20090620 03:55	11.1	11.1	11.1	92	9.8	3	6	270	0.0	1019.7	0	0.000	0.0
20090620 04:00	11.1	11.1	11.1	93	10.0	2	6	270	0.0	1019.7	0	0.000	0.0
20090620 04:05	11.1	11.1	11.1	93	10.0	2	5	270	0.0	1019.7	0	0.000	0.0
20090620 04:10	11.0	11.0	11.0	92	9.7	2	6	270	0.0	1019.8	0	0.000	0.0
20090620 04:15	11.0	11.0	11.0	92	9.7	2	6	270	0.0	1019.7	0	0.000	0.0
20090620 04:20	10.9	10.9	10.9	93	9.9	3	6	270	0.0	1019.7	0	0.000	0.0
20090620 04:25	11.0	11.0	11.0	93	9.9	3	6	270	0.0	1019.7	0	0.000	0.0
20090620 04:30	11.0	11.0	11.0	92	9.7	2	10	270	0.0	1019.7	0	0.000	0.0
20090620 04:35	10.9	10.9	10.9	92	9.7	3	8	270	0.0	1019.6	0	0.000	0.0
20090620 04:40	11.0	11.0	11.0	92	9.7	2	6	270	0.0	1019.6	0	0.000	0.0
20090620 04:45	10.9	10.9	10.9	93	9.9	0	0	-100000	0.0	1019.6	0	0.000	0.0
20090620 04:50	11.0	11.0	11.0	93	9.9	0	3	270	0.0	1019.4	0	0.000	0.0
20090620 04:55	11.0	11.0	11.0	93	9.9	0	2	270	0.0	1019.5	0	0.000	0.0
20090620 05:00	11.1	11.1	11.1	93	10.0	2	5	270	0.0	1019.4	0	0.000	0.0
20090620 05:05	11.1	11.1	11.1	93	10.0	2	3	270	0.0	1019.3	0	0.000	0.0
20090620 05:10	11.1	11.1	11.1	93	10.0	2	5	270	0.0	1019.3	0	0.000	0.0
20090620 05:15	11.1	11.1	11.1	92	9.8	2	5	270	0.0	1019.3	0	0.000	0.0
20090620 05:20	11.0	11.0	11.0	92	9.7	0	2	270	0.0	1019.3	0	0.000	0.0
20090620 05:25	11.1	11.1	11.1	93	10.0	0	2	270	0.0	1019.3	0	0.000	0.0
20090620 05:30	11.1	11.1	11.1	93	10.0	0	2	270	0.0	1019.3	0	0.000	0.0
20090620 05:35	11.1	11.1	11.1	93	10.0	0	2	270	0.0	1019.3	0	0.000	0.0
20090620 05:40	11.1	11.1	11.1	93	10.0	0	6	22	0.0	1019.3	0	0.000	0.0
20090620 05:45	11.1	11.1	11.1	93	10.0	0	3	248	0.0	1019.3	0	0.000	0.0
20090620 05:50	11.1	11.1	11.1	93	10.0	2	5	248	0.0	1019.3	0	0.000	0.0
20090620 05:55	11.1	11.1	11.1	93	10.0	2	5	248	0.0	1019.3	0	0.000	0.0
20090620 06:00	11.1	11.1	11.1	93	10.0	3	6	248	0.0	1019.4	0	0.000	0.0
20090620 06:05	11.1	11.1	11.1	93	10.0	3	6	248	0.2	1019.6	4	0.000	0.0
20090620 06:10	11.1	11.1	11.1	93	10.0	5	8	248	0.0	1019.6	7	0.000	0.0
20090620 06:15	11.2	11.2	11.2	93	10.1	5	10	248	0.2	1019.6	10	0.000	0.0
20090620 06:20	11.1	11.1	11.1	93	10.0	6	11	248	0.2	1019.6	9	0.000	0.0
20090620 06:25	11.1	11.1	11.1	93	10.0	6	11	248	0.0	1019.6	11	0.000	0.0
20090620 06:30	11.0	11.0	11.0	93	9.9	5	11	270	0.2	1019.6	13	0.000	0.0
20090620 06:35	11.0	11.0	11.0	93	9.9	5	10	248	0.0	1019.7	17	0.000	0.0
20090620 06:40	11.0	11.0	11.0	93	9.9	5	10	270	0.0	1019.7	20	0.000	0.0
20090620 06:45	10.9	10.9	10.9	93	9.9	5	11	270	0.0	1019.8	26	0.000	0.0
20090620 06:50	10.9	10.9	10.9	93	9.8	6	11	248	0.0	1019.8	26	0.000	0.0
20090620 06:55	10.9	10.9	10.9	93	9.8	5	10	248	0.0	1019.9	23	0.000	0.0
20090620 07:00	10.8	10.8	10.8	93	9.7	6	11	248	0.0	1019.9	25	0.000	0.0
20090620 07:05	10.8	10.8	10.8	93	9.7	6	14	270	0.0	1020.0	33	0.000	0.0
20090620 07:10	10.8	10.8	10.8	93	9.7	5	10	270	0.0	1020.0	38	0.000	0.0
20090620 07:15	10.8	10.8	10.8	93	9.7	6	11	270	0.0	1020.0	37	0.000	0.0
20090620 07:20	10.8	10.8	10.8	93	9.7	5	10	270	0.0	1020.0	36	0.000	0.0
20090620 07:25	10.9	10.9	10.9	93	9.8	3	11	270	0.0	1020.0	36	0.000	0.0
20090620 07:30	10.9	10.9	10.9	93	9.8	6	11	248	0.0	1020.0	29	0.000	0.0
20090620 07:35	10.9	10.9	10.9	93	9.8	5	8	248	0.0	1020.0	31	0.000	0.0
20090620 07:40	10.9	10.9	10.9	93	9.9	5	10	248	0.0	1020.1	37	0.000	0.0
20090620 07:45	11.0	11.0	11.0	93	9.9	5	8	248	0.2	1020.1	47	0.000	0.0
20090620 07:50	11.0	11.0	11.0	93	9.9	5	10	248	0.0	1020.0	75	0.000	0.0
20090620 07:55	11.1	11.1	11.1	93	10.0	5	10	270	0.0	1019.9	82	0.000	0.0
20090620 08:00	11.2	11.2	11.2	93	10.1	5	10	248	0.0	1019.9	70	0.025	0.0
20090620 08:05	11.2	11.2	11.2	93	10.1	6	10	270	0.0	1019.9	76	0.000	0.0
20090620 08:10	11.3	11.3	11.3	93	10.2	5	10	270	0.0	1019.8	77	0.000	0.0
20090620 08:15	11.3	11.3	11.3	93	10.2	6	10	270	0.0	1019.9	70	0.000	0.0
20090620 08:20	11.3	11.3	11.3	93	10.2	5	8	270	0.0	1019.9	62	0.000	0.0
20090620 08:25	11.4	11.4	11.4	93	10.3	6	11	270	0.0	1019.9	69	0.000	0.3
20090620 08:30	11.4	11.4	11.4	93	10.4	5	11	270	0.0	1019.9	62	0.000	0.1
20090620 08:35	11.4	11.4	11.4	93	10.4	8	14	270	0.0	1019.9	53	0.000	0.0
20090620 08:40	11.4	11.4	11.4	93	10.4	6	11	270	0.0	1019.9	42	0.000	0.0
20090620 08:45	11.4	11.4	11.4	93	10.3	6	14	270	0.0	1019.9	51	0.000	0.0
20090620 08:50	11.4	11.4	11.4	93	10.4	6	14	292	0.0	1019.8	108	0.000	0.6
20090620 08:55	11.4	11.4	11.4	92	10.2	8	18	292	0.0	1019.8	112	0.000	0.7
20090620 09:00	11.4	11.4	11.4	92	10.2	6	13	270	0.0	1019.7	106	0.051	0.7
20090620 09:05	11.6	11.6	11.6	92	10.3	6	10	202	0.0	1019.6	118	0.000	0.8
20090620 09:10	11.6	11.6	11.6	92	10.4	5	10	292	0.0	1019.6	117	0.000	0.9
20090620 09:15	11.8	11.8	11.8	92	10.5	5	8	292	0.0	1019.7	116	0.000	0.8
20090620 09:20	11.8	11.8	11.8	91	10.4	6	10	292	0.0	1019.7	129	0.000	0.9
20090620 09:25	11.8	11.8	11.8	91	10.4	6	11	270	0.0	1019.7	151	0.000	1.1
20090620 09:30	11.9	11.9	11.9	91	10.5	5	8	45	0.0	1019.6	199	0.000	1.5
20090620 09:35	12.2	12.2	12.2	91	10.7	8	13	315	0.0	1019.6	316	0.000	2.1
20090620 09:40	12.2	12.2	12.2	90	10.6	8	14	292	0.0	1019.7	304	0.000	2.1
20090620 09:45	12.4	12.4	12.4	89	10.6	6	11	68	0.0	1019.7	247	0.000	1.5
20090620 09:50	12.4	12.4	12.4	88	10.5	6	13	292	0.0	1019.8	204	0.000	1.4
20090620 09:55	12.5	12.5	12.5	89	10.7	3	8	292	0.0	1019.8	198	0.000	1.4
20090620 10:00	12.6	12.6	12.6	87	10.4	5	8	292	0.0	1019.9	185	0.102	1.4
20090620 10:05	12.6	12.6	12.6	87	10.4	5	11	292	0.0	1020.0	171	0.000	1.3
20090620 10:10	12.4	12.4	12.4	86	10.2	6	11	292	0.0	1020.1	131	0.000	1.1
20090620 10:15	12.4	12.4	12.4	87	10.3	6	14	292	0.0	1020.1	124	0.000	1.0
20090620 10:20	12.4	12.4	12.4	87	10.3	6	10	292	0.0	1020.1	151	0.000	1.3
20090620 10:25	12.4	12.4	12.4	87	10.3	6	10	292	0.0	1020.1	221	0.000	1.9
20090620 10:30	12.6	12.6	12.6	87	10.4	6	11	270	0.0	1020.0	235	0.000	2.1
20090620 10:35	12.7	12.7	12.7	87	10.6	5	8	315	0.0	1020.0	263	0.000	2.3
20090620 10:40	12.9	12.9	12.9	86	10.6	5	8	292	0.0	1020.0	303	0.000	2.5
20090620 10:45	13.0	13.0	13.0	85	10.5	5	8	292	0.0	1019.9	297	0.000	2.4
20090620 10:50	13.1	13.1	13.1	85	10.6	5	14	292	0.0	1019.8	321	0.000	2.6
20090620 10:55	13.2	13.2	13.2	85	10.8	5	11	292	0.0	1019.8	265	0.000	2.3
20090620 11:00	13.3	13.3	13.3	85	10.8	2	10	315	0.0	1019.8	252	0.127	2.4
20090620 11:05	13.3	13.3	13.3	85	10.9	3	6	315	0.0	1019.9	316	0.000	3.0
20090620 11:10	13.4	13.4	13.4	83	10.6	3	8	270	0.0	1019.9	366	0.000	3.1
20090620 11:15	13.6	13.6	13.6	84	10.9	5	8	270	0.0	1019.9	339	0.000	3.1
20090620 11:20	13.7	13.7	13.7	82	10.7	3	10	270	0.0	1019.7	334	0.000	3.2
20090620 11:25	13.8	13.8	13.8	83	11.0	5	10	270	0.0	1019.8	410	0.000	3.6
20090620 11:30	13.9	13.9	13.9	82	10.9	6	18	292	0.0	1019.8	403	0.000	3.6
20090620 11:35	14.1	14.1	14.1	82	11.1	3	6	225	0.0	1019.8	412	0.000	3.6
20090620 11:40	14.2	14.2	14.2	81	11.0	5	10	270	0.0	1019.8	353	0.000	3.4
20090620 11:45	14.3	14.3	14.3	82	11.3	5	8	315	0.0	1019.7	439	0.000	5.1
20090620 11:50	14.8	14.8	14.8	80	11.4	3	10	338	0.0	1019.7	652	0.000	5.3
20090620 11:55	15.0	15.0	15.0	77	11.0	5	11	292	0.0	1019.6	432	0.000	4.0
20090620 12:00	15.0	15.0	15.0	76	10.8	6	16	315	0.0	1019.6	333	0.229	3.2
20090620 12:05	15.0	15.0	15.0	77	11.0	6	16	292	0.0	1019.6	291	0.000	3.0
20090620 12:10	15.0	15.0	15.0	76	10.8	6	14	292	0.0	1019.5	363	0.000	3.7
20090620 12:15	15.0	15.0	15.0	75	10.6	2	6	0	0.0	1019.5	432	0.000	3.9
20090620 12:20	15.0	15.0	15.0	72	10.0	3	11	315	0.0	1019.5	360	0.000	3.3
20090620 12:25	15.0	15.0	15.0	75	10.6	5	8	270	0.0	1019.5	392	0.000	3.7
20090620 12:30	15.1	15.1	15.1	71	9.8	3	6	292	0.0	1019.6	400	0.000	4.1
20090620 12:35	15.3	15.3	15.3	71	10.1	5	11	292	0.0	1019.6	489	0.000	5.5
20090620 12:40	15.7	15.7	15.7	71	10.4	5	10	270	0.0	1019.4	494	0.000	6.6
20090620 12:45	16.2	16.2	16.2	67	10.1	5	8	270	0.0	1019.3	842	0.000	6.6
20090620 12:50	16.3	16.3	16.3	67	10.2	3	10	270	0.0	1019.3	502	0.000	5.0
20090620 12:55	16.1	16.1	16.1	68	10.2	8	16	292	0.0	1019.2	495	0.000	4.8
20090620 13:00	16.1	16.1	16.1	66	9.7	5	14	292	0.0	1019.2	603	0.305	4.8
20090620 13:05	16.0	16.0	16.0	66	9.6	6	14	270	0.0	1019.2	288	0.000	2.5
20090620 13:10	15.8	15.8	15.8	66	9.4	3	8	270	0.0	1019.3	197	0.000	1.8
20090620 13:15	15.6	15.6	15.6	69	9.9	2	8	270	0.0	1019.4	203	0.000	1.9
20090620 13:20	15.6	15.6	15.6	68	9.7	5	11	292	0.0	1019.3	191	0.000	1.7
20090620 13:25	15.4	15.4	15.4	67	9.3	5	8	292	0.0	1019.3	211	0.000	2.0
20090620 13:30	15.4	15.4	15.4	68	9.6	5	10	270	0.0	1019.3	285	0.000	2.7
20090620 13:35	15.4	15.4	15.4	67	9.3	3	10	270	0.0	1019.3	332	0.000	3.1
20090620 13:40	15.5	15.5	15.5	67	9.4	3	8	270	0.0	1019.2	313	0.000	3.0
20090620 13:45	15.6	15.6	15.6	68	9.7	5	10	248	0.0	1019.1	309	0.000	2.8
20090620 13:50	15.6	15.6	15.6	66	9.3	6	10	225	0.0	1019.0	356	0.000	3.4
20090620 13:55	15.7	15.7	15.7	67	9.6	5	8	248	0.0	1019.0	351	0.000	3.4
20090620 14:00	15.7	15.7	15.7	66	9.3	6	11	248	0.0	1019.1	243	0.178	2.5
20090620 14:05	15.6	15.6	15.6	71	10.4	8	16	248	0.0	1019.1	237	0.000	2.4
20090620 14:10	15.5	15.5	15.5	72	10.5	10	16	248	0.0	1019.1	288	0.000	2.7
20090620 14:15	15.4	15.4	15.4	71	10.2	10	19	225	0.0	1019.1	349	0.000	3.2
20090620 14:20	15.4	15.4	15.4	67	9.3	10	18	248	0.0	1019.1	304	0.000	2.9
20090620 14:25	15.2	15.2	15.2	63	8.2	13	24	248	0.0	1019.1	253	0.000	2.5
20090620 14:30	15.0	15.0	15.0	63	8.0	10	19	248	0.0	1019.2	303	0.000	3.0
20090620 14:35	15.0	15.0	15.0	61	7.5	8	16	248	0.0	1019.1	433	0.000	3.9
20090620 14:40	15.4	15.4	15.4	60	7.7	8	18	248	0.0	1019.0	692	0.000	5.8
20090620 14:45	16.0	16.0	16.0	58	7.7	8	21	315	0.0	1019.2	586	0.000	4.5
20090620 14:50	15.6	15.6	15.6	61	8.1	16	27	22	0.0	1019.3	302	0.000	2.7
20090620 14:55	15.1	15.1	15.1	65	8.5	10	19	22	0.0	1019.5	310	0.000	2.8
20090620 15:00	14.9	14.9	14.9	67	8.8	6	14	22	0.0	1019.4	318	0.229	2.9
20090620 15:05	14.6	14.6	14.6	65	8.0	10	16	22	0.0	1019.5	324	0.000	3.0
20090620 15:10	14.5	14.5	14.5	65	8.0	5	11	22	0.0	1019.4	305	0.000	2.7
20090620 15:15	14.4	14.4	14.4	64	7.7	5	8	22	0.0	1019.4	306	0.000	2.7
20090620 15:20	14.4	14.4	14.4	67	8.4	2	6	315	0.0	1019.5	273	0.000	2.4
20090620 15:25	14.4	14.4	14.4	68	8.6	2	5	338	0.0	1019.5	183	0.000	1.7
20090620 15:30	14.4	14.4	14.4	66	8.1	2	5	0	0.0	1019.4	136	0.000	1.2
20090620 15:35	14.3	14.3	14.3	69	8.7	0	3	338	0.0	1019.3	119	0.000	1.0
20090620 15:40	14.3	14.3	14.3	69	8.7	2	8	292	0.0	1019.3	109	0.000	0.9
20090620 15:45	14.2	14.2	14.2	70	8.8	3	11	292	0.0	1019.2	112	0.000	0.9
20090620 15:50	14.2	14.2	14.2	72	9.2	2	5	315	0.0	1019.1	125	0.000	1.0
20090620 15:55	14.2	14.2	14.2	73	9.4	0	3	315	0.0	1019.0	133	0.000	1.0
20090620 16:00	14.2	14.2	14.2	73	9.4	0	3	315	0.0	1018.8	131	0.102	1.0
20090620 16:05	14.3	14.3	14.3	72	9.3	2	6	315	0.0	1018.9	138	0.000	1.1
20090620 16:10	14.3	14.3	14.3	67	8.3	5	8	292	0.0	1018.9	154	0.000	1.3
20090620 16:15	14.4	14.4	14.4	65	7.9	5	10	292	0.0	1018.8	214	0.000	1.7
20090620 16:20	14.4	14.4	14.4	64	7.7	3	10	292	0.0	1018.9	245	0.000	2.0
20090620 16:25	14.6	14.6	14.6	62	7.4	3	6	292	0.0	1018.8	265	0.000	2.0
20090620 16:30	14.7	14.7	14.7	63	7.7	3	6	292	0.0	1018.8	260	0.000	2.0
20090620 16:35	14.9	14.9	14.9	64	8.1	3	6	292	0.0	1018.9	228	0.000	1.7
20090620 16:40	15.0	15.0	15.0	63	8.0	3	6	292	0.0	1018.9	213	0.000	1.6
20090620 16:45	15.0	15.0	15.0	62	7.8	3	5	45	0.0	1018.9	213	0.000	1.5
20090620 16:50	15.2	15.2	15.2	63	8.2	3	10	248	0.0	1018.9	207	0.000	1.4
20090620 16:55	15.2	15.2	15.2	62	8.0	5	8	248	0.0	1018.9	213	0.000	1.4
20090620 17:00	15.2	15.2	15.2	61	7.7	5	8	248	0.0	1018.8	236	0.127	1.4
20090620 17:05	15.2	15.2	15.2	63	8.2	5	8	248	0.0	1018.8	240	0.000	1.4
20090620 17:10	15.2	15.2	15.2	62	8.0	3	6	248	0.0	1018.7	192	0.000	1.3
20090620 17:15	15.3	15.3	15.3	64	8.6	3	6	248	0.0	1018.6	176	0.000	1.2
20090620 17:20	15.4	15.4	15.4	63	8.4	3	6	248	0.0	1018.6	173	0.000	1.1
20090620 17:25	15.5	15.5	15.5	65	8.9	2	5	248	0.0	1018.6	187	0.000	1.0
20090620 17:30	15.7	15.7	15.7	62	8.4	3	6	248	0.0	1018.5	245	0.000	1.2
20090620 17:35	15.8	15.8	15.8	62	8.5	3	8	248	0.0	1018.5	255	0.000	1.3
20090620 17:40	15.9	15.9	15.9	63	8.9	5	8	248	0.0	1018.5	407	0.000	1.6
20090620 17:45	16.2	16.2	16.2	60	8.4	3	8	292	0.0	1018.4	555	0.000	1.8
20090620 17:50	16.6	16.6	16.6	59	8.5	2	5	270	0.0	1018.2	265	0.000	1.4
20090620 17:55	16.6	16.6	16.6	60	8.8	5	6	270	0.0	1018.3	195	0.000	1.2
20090620 18:00	16.4	16.4	16.4	62	9.1	3	8	68	0.0	1018.2	173	0.152	1.1
20090620 18:05	16.3	16.3	16.3	63	9.3	0	3	315	0.0	1018.3	164	0.000	1.0
20090620 18:10	16.2	16.2	16.2	61	8.6	3	8	315	0.0	1018.4	159	0.000	0.9
20090620 18:15	16.1	16.1	16.1	61	8.5	3	8	292	0.0	1018.4	148	0.000	0.8
20090620 18:20	15.9	15.9	15.9	60	8.2	3	6	315	0.0	1018.4	136	0.000	0.6
20090620 18:25	15.9	15.9	15.9	59	7.9	3	5	292	0.0	1018.3	128	0.000	0.6
20090620 18:30	15.8	15.8	15.8	61	8.3	2	5	270	0.0	1018.3	114	0.000	0.5
20090620 18:35	15.8	15.8	15.8	59	7.8	0	2	270	0.0	1018.3	101	0.000	0.3
20090620 18:40	15.8	15.8	15.8	60	8.0	0	3	270	0.0	1018.4	82	0.000	0.0
20090620 18:45	15.7	15.7	15.7	59	7.7	2	5	270	0.0	1018.3	79	0.000	0.0
20090620 18:50	15.6	15.6	15.6	58	7.3	2	6	270	0.0	1018.3	91	0.000	0.0
20090620 18:55	15.6	15.6	15.6	61	8.1	3	5	270	0.0	1018.3	114	0.000	0.0
20090620 19:00	15.7	15.7	15.7	62	8.5	3	8	225	0.0	1018.4	119	0.076	0.0
20090620 19:05	15.7	15.7	15.7	61	8.2	5	8	225	0.0	1018.4	108	0.000	0.0
20090620 19:10	15.7	15.7	15.7	60	8.0	2	5	270	0.0	1018.4	110	0.000	0.0
20090620 19:15	15.7	15.7	15.7	61	8.2	3	8	202	0.0	1018.5	113	0.000	0.0
20090620 19:20	15.7	15.7	15.7	61	8.2	5	10	202	0.0	1018.5	98	0.000	0.0
20090620 19:25	15.6	15.6	15.6	62	8.4	3	6	225	0.0	1018.4	74	0.000	0.0
20090620 19:30	15.4	15.4	15.4	67	9.3	8	21	225	0.0	1018.5	64	0.000	0.0
20090620 19:35	15.0	15.0	15.0	69	9.4	10	19	202	0.0	1018.7	62	0.000	0.0
20090620 19:40	14.6	14.6	14.6	70	9.2	8	16	202	0.0	1018.7	69	0.000	0.0
20090620 19:45	14.3	14.3	14.3	71	9.1	8	18	202	0.0	1018.6	72	0.000	0.0
20090620 19:50	14.2	14.2	14.2	71	9.0	8	14	225	0.0	1018.6	53	0.000	0.0
20090620 19:55	13.9	13.9	13.9	71	8.8	8	16	202	0.0	1018.8	54	0.000	0.0
20090620 20:00	13.9	13.9	13.9	72	8.9	6	14	202	0.0	1018.8	62	0.076	0.0
20090620 20:05	13.8	13.8	13.8	73	9.0	8	14	202	0.0	1018.7	64	0.000	0.0
20090620 20:10	13.7	13.7	13.7	75	9.4	6	11	202	0.0	1018.6	63	0.000	0.0
20090620 20:15	13.7	13.7	13.7	75	9.3	5	8	202	0.0	1018.6	66	0.000	0.0
20090620 20:20	13.7	13.7	13.7	75	9.3	5	10	202	0.0	1018.6	51	0.000	0.0
20090620 20:25	13.6	13.6	13.6	76	9.4	6	14	202	0.0	1018.7	38	0.000	0.0
20090620 20:30	13.5	13.5	13.5	77	9.5	5	10	202	0.0	1018.7	29	0.000	0.0
20090620 20:35	13.4	13.4	13.4	77	9.5	5	10	202	0.0	1018.7	27	0.000	0.0
20090620 20:40	13.4	13.4	13.4	78	9.6	3	6	180	0.0	1018.8	20	0.000	0.0
20090620 20:45	13.3	13.3	13.3	79	9.7	5	10	202	0.0	1018.9	15	0.000	0.0
20090620 20:50	13.2	13.2	13.2	79	9.7	5	10	225	0.0	1018.9	12	0.000	0.0
20090620 20:55	13.1	13.1	13.1	80	9.7	6	10	202	0.0	1018.9	8	0.000	0.0
20090620 21:00	13.0	13.0	13.0	81	9.8	5	10	202	0.0	1018.9	5	0.025	0.0
20090620 21:05	12.9	12.9	12.9	81	9.8	5	10	225	0.0	1018.8	5	0.000	0.0
20090620 21:10	12.9	12.9	12.9	82	9.9	6	10	202	0.0	1018.9	3	0.000	0.0
20090620 21:15	12.8	12.8	12.8	82	9.8	5	10	202	0.0	1018.9	0	0.000	0.0
20090620 21:20	12.8	12.8	12.8	82	9.8	5	10	202	0.0	1018.9	0	0.000	0.0
20090620 21:25	12.7	12.7	12.7	82	9.7	5	10	202	0.0	1018.9	0	0.000	0.0
20090620 21:30	12.6	12.6	12.6	82	9.6	5	10	202	0.0	1018.9	0	0.000	0.0
20090620 21:35	12.5	12.5	12.5	82	9.5	5	10	225	0.0	1019.0	0	0.000	0.0
20090620 21:40	12.4	12.4	12.4	82	9.5	3	10	225	0.0	1019.1	0	0.000	0.0
20090620 21:45	12.4	12.4	12.4	82	9.4	2	6	225	0.0	1019.1	0	0.000	0.0
20090620 21:50	12.3	12.3	12.3	82	9.3	5	8	225	0.0	1019.2	0	0.000	0.0
20090620 21:55	12.2	12.2	12.2	82	9.2	5	10	225	0.0	1019.3	0	0.000	0.0
20090620 22:00	12.2	12.2	12.2	82	9.2	6	10	225	0.0	1019.3	0	0.025	0.0
20090620 22:05	12.1	12.1	12.1	83	9.3	6	10	225	0.0	1019.3	0	0.000	0.0
20090620 22:10	12.0	12.0	12.0	82	9.0	6	10	248	0.0	1019.3	0	0.000	0.0
20090620 22:15	11.9	11.9	11.9	82	8.9	6	11	225	0.0	1019.4	0	0.000	0.0
20090620 22:20	11.8	11.8	11.8	82	8.9	5	10	225	0.0	1019.5	0	0.000	0.0
20090620 22:25	11.7	11.7	11.7	83	8.9	5	10	248	0.0	1019.4	0	0.000	0.0
20090620 22:30	11.6	11.6	11.6	83	8.8	3	6	248	0.0	1019.4	0	0.000	0.0
20090620 22:35	11.6	11.6	11.6	83	8.8	5	8	248	0.0	1019.4	0	0.000	0.0
20090620 22:40	11.4	11.4	11.4	83	8.6	5	8	248	0.0	1019.4	0	0.000	0.0
20090620 22:45	11.2	11.2	11.2	84	8.6	3	8	248	0.0	1019.3	0	0.000	0.0
20090620 22:50	11.1	11.1	11.1	84	8.5	3	6	248	0.0	1019.3	0	0.000	0.0
20090620 22:55	11.0	11.0	11.0	84	8.4	2	5	248	0.0	1019.3	0	0.000	0.0
20090620 23:00	10.9	10.9	10.9	84	8.3	0	2	248	0.0	1019.3	0	0.025	0.0
20090620 23:05	10.8	10.8	10.8	84	8.2	0	0	-100000	0.0	1019.3	0	0.000	0.0
20090620 23:10	10.7	10.7	10.7	85	8.3	0	2	248	0.0	1019.3	0	0.000	0.0
20090620 23:15	10.7	10.7	10.7	85	8.2	0	2	248	0.0	1019.3	0	0.000	0.0
20090620 23:20	10.6	10.6	10.6	85	8.1	0	5	248	0.0	1019.3	0	0.000	0.0
20090620 23:25	10.6	10.6	10.6	86	8.3	2	5	248	0.0	1019.3	0	0.000	0.0
20090620 23:30	10.6	10.6	10.6	86	8.3	2	5	248	0.0	1019.3	0	0.000	0.0
20090620 23:35	10.5	10.5	10.5	86	8.3	5	6	248	0.0	1019.3	0	0.000	0.0
20090620 23:40	10.5	10.5	10.5	86	8.3	3	8	248	0.0	1019.3	0	0.000	0.0
20090620 23:45	10.4	10.4	10.4	86	8.2	3	6	248	0.0	1019.3	0	0.000	0.0
20090620 23:50	10.4	10.4	10.4	86	8.1	5	8	248	0.0	1019.3	0	0.000	0.0
20090620 23:55	10.3	10.3	10.3	86	8.1	5	8	248	0.0	1019.3	0	0.000	0.0



Please note the license to use and transfer of this data:
http://creativecommons.org/licenses/by-nc-sa/3.0/deed.en

Bitte beachten sie die Lizenz zur Verwertung und Weitergabe der Daten:
http://creativecommons.org/licenses/by-nc-sa/3.0/deed.de

zurück zur Übersicht der Archivdaten (Monats und Tagesdaten)

Cookies helfen bei der Bereitstellung von Inhalten. Durch die Nutzung dieser Seiten erklärst du dich damit einverstanden, dass Cookies auf deinem Rechner gespeichert werden. Weitere Information